createdAt,value
2023-05-08T00:01:57.931Z,13.84
2023-05-08T00:04:26.209Z,13.81
2023-05-08T00:06:54.392Z,13.71
2023-05-08T00:09:22.428Z,13.66
2023-05-08T00:11:50.531Z,13.65
2023-05-08T00:14:20.037Z,13.58
2023-05-08T00:16:48.183Z,13.59
2023-05-08T00:19:16.278Z,13.57
2023-05-08T00:21:44.344Z,13.47
2023-05-08T00:24:12.528Z,13.35
2023-05-08T00:26:42.074Z,13.26
2023-05-08T00:29:10.251Z,13.25
2023-05-08T00:31:40.232Z,13.23
2023-05-08T00:34:08.305Z,13.18
2023-05-08T00:36:36.366Z,13.06
2023-05-08T00:39:04.717Z,12.99
2023-05-08T00:41:32.815Z,12.92
2023-05-08T00:44:00.946Z,12.93
2023-05-08T00:46:29.133Z,12.90
2023-05-08T00:48:58.771Z,12.84
2023-05-08T00:51:27.859Z,12.82
2023-05-08T00:53:56.485Z,12.77
2023-05-08T00:56:26.158Z,12.75
2023-05-08T00:58:54.915Z,12.69
2023-05-08T01:01:23.786Z,12.68
2023-05-08T01:03:52.178Z,12.62
2023-05-08T01:06:21.863Z,12.65
2023-05-08T01:08:50.671Z,12.62
2023-05-08T01:11:32.527Z,12.63
2023-05-08T01:14:10.918Z,12.63
2023-05-08T01:16:45.318Z,12.57
2023-05-08T01:19:38.367Z,12.50
2023-05-08T01:22:16.528Z,12.47
2023-05-08T01:25:09.943Z,12.44
2023-05-08T01:28:01.962Z,12.41
2023-05-08T01:31:09.047Z,12.32
2023-05-08T01:33:44.197Z,12.29
2023-05-08T01:36:19.874Z,12.29
2023-05-08T01:38:57.348Z,12.23
2023-05-08T01:41:29.314Z,12.16
2023-05-08T01:44:07.503Z,12.19
2023-05-08T01:46:35.824Z,12.09
2023-05-08T01:49:09.283Z,12.02
2023-05-08T01:51:42.612Z,11.79
2023-05-08T01:54:14.158Z,11.75
2023-05-08T01:56:44.866Z,11.67
2023-05-08T01:59:16.035Z,11.69
2023-05-08T02:01:48.118Z,11.60
2023-05-08T02:04:19.259Z,11.52
2023-05-08T02:06:47.790Z,11.49
2023-05-08T02:09:16.652Z,11.49
2023-05-08T02:11:47.547Z,11.47
2023-05-08T02:14:21.191Z,11.40
2023-05-08T02:16:51.964Z,11.33
2023-05-08T02:19:24.689Z,11.32
2023-05-08T02:21:54.165Z,11.32
2023-05-08T02:24:23.818Z,11.32
2023-05-08T02:26:55.367Z,11.22
2023-05-08T02:29:25.351Z,11.23
2023-05-08T02:31:56.238Z,11.21
2023-05-08T02:34:26.665Z,11.09
2023-05-08T02:36:55.929Z,11.02
2023-05-08T02:39:30.033Z,10.83
2023-05-08T02:41:58.766Z,10.80
2023-05-08T02:44:27.149Z,10.75
2023-05-08T02:46:59.996Z,10.60
2023-05-08T02:49:34.549Z,10.54
2023-05-08T02:52:11.517Z,10.49
2023-05-08T02:54:48.686Z,10.43
2023-05-08T02:57:33.169Z,10.31
2023-05-08T03:00:04.971Z,10.24
2023-05-08T03:02:39.221Z,10.28
2023-05-08T03:05:16.332Z,10.19
2023-05-08T03:07:46.363Z,10.24
2023-05-08T03:10:16.812Z,10.21
2023-05-08T03:12:47.717Z,10.21
2023-05-08T03:15:23.997Z,10.16
2023-05-08T03:17:56.204Z,10.19
2023-05-08T03:20:29.710Z,10.14
2023-05-08T03:22:58.408Z,10.18
2023-05-08T03:25:27.884Z,10.16
2023-05-08T03:27:57.548Z,10.15
2023-05-08T03:30:28.004Z,10.17
2023-05-08T03:33:05.677Z,10.20
2023-05-08T03:35:37.253Z,10.17
2023-05-08T03:38:06.764Z,10.16
2023-05-08T03:40:38.739Z,10.17
2023-05-08T03:43:08.604Z,10.15
2023-05-08T03:45:37.893Z,10.16
2023-05-08T03:48:07.566Z,10.15
2023-05-08T03:50:39.520Z,10.13
2023-05-08T03:53:10.566Z,10.15
2023-05-08T03:55:39.444Z,10.10
2023-05-08T03:58:18.930Z,10.07
2023-05-08T04:01:00.053Z,10.04
2023-05-08T04:03:42.494Z,9.93
2023-05-08T04:06:16.114Z,10.02
2023-05-08T04:08:53.713Z,9.94
2023-05-08T04:11:31.833Z,9.95
2023-05-08T04:14:05.073Z,9.93
2023-05-08T04:16:38.758Z,9.91
2023-05-08T04:19:12.937Z,9.94
2023-05-08T04:21:44.540Z,10.00
2023-05-08T04:24:16.533Z,9.93
2023-05-08T04:26:47.361Z,9.80
2023-05-08T04:29:18.975Z,9.83
2023-05-08T04:31:48.253Z,9.83
2023-05-08T04:34:17.200Z,9.75
2023-05-08T04:36:48.624Z,9.76
2023-05-08T04:39:16.723Z,9.77
2023-05-08T04:41:44.885Z,9.79
2023-05-08T04:44:14.327Z,9.78
2023-05-08T04:46:42.567Z,9.73
2023-05-08T04:49:10.991Z,9.71
2023-05-08T04:51:39.097Z,9.62
2023-05-08T04:54:08.554Z,9.64
2023-05-08T04:56:36.837Z,9.70
2023-05-08T04:59:05.165Z,9.64
2023-05-08T05:01:33.651Z,9.72
2023-05-08T05:04:02.060Z,9.78
2023-05-08T05:06:31.341Z,9.88
2023-05-08T05:08:59.395Z,9.73
2023-05-08T05:11:29.101Z,9.79
2023-05-08T05:13:57.212Z,9.84
2023-05-08T05:16:25.632Z,9.83
2023-05-08T05:18:53.936Z,9.87
2023-05-08T05:21:22.102Z,9.89
2023-05-08T05:23:50.377Z,9.89
2023-05-08T05:26:18.595Z,9.79
2023-05-08T05:28:48.653Z,9.73
2023-05-08T05:31:16.802Z,9.82
2023-05-08T05:33:44.911Z,9.76
2023-05-08T05:36:13.140Z,9.79
2023-05-08T05:38:41.449Z,9.87
2023-05-08T05:41:09.600Z,9.82
2023-05-08T05:43:37.701Z,9.76
2023-05-08T05:46:08.066Z,9.77
2023-05-08T05:48:36.819Z,9.69
2023-05-08T05:51:06.319Z,9.71
2023-05-08T05:53:34.789Z,9.77
2023-05-08T05:56:03.405Z,9.81
2023-05-08T05:58:33.264Z,9.81
2023-05-08T06:01:02.259Z,9.77
2023-05-08T06:03:32.966Z,9.87
2023-05-08T06:06:01.418Z,9.90
2023-05-08T06:08:29.534Z,9.83
2023-05-08T06:10:57.677Z,9.77
2023-05-08T06:13:26.026Z,9.72
2023-05-08T06:15:57.108Z,9.85
2023-05-08T06:18:26.132Z,9.83
2023-05-08T06:20:59.173Z,9.97
2023-05-08T06:23:28.555Z,10.09
2023-05-08T06:25:58.063Z,10.04
2023-05-08T06:28:26.585Z,10.11
2023-05-08T06:30:55.295Z,10.03
2023-05-08T06:33:26.098Z,10.02
2023-05-08T06:35:59.973Z,10.06
2023-05-08T06:38:32.178Z,10.09
2023-05-08T06:41:03.197Z,10.08
2023-05-08T06:43:31.831Z,10.08
2023-05-08T06:46:07.971Z,10.04
2023-05-08T06:48:36.325Z,10.03
2023-05-08T06:51:04.931Z,10.07
2023-05-08T06:53:34.794Z,10.10
2023-05-08T06:56:02.989Z,10.22
2023-05-08T06:58:32.316Z,10.19
2023-05-08T07:01:01.173Z,10.28
2023-05-08T07:03:29.891Z,10.52
2023-05-08T07:05:58.284Z,10.57
2023-05-08T07:08:26.584Z,10.62
2023-05-08T07:10:56.285Z,10.71
2023-05-08T07:13:24.771Z,10.66
2023-05-08T07:15:55.050Z,10.66
2023-05-08T07:18:23.748Z,10.63
2023-05-08T07:20:52.285Z,10.57
2023-05-08T07:23:23.801Z,10.68
2023-05-08T07:25:51.970Z,10.65
2023-05-08T07:28:21.478Z,10.56
2023-05-08T07:30:50.239Z,10.58
2023-05-08T07:33:18.789Z,10.54
2023-05-08T07:35:56.356Z,10.69
2023-05-08T07:38:24.899Z,10.69
2023-05-08T07:40:57.183Z,10.83
2023-05-08T07:43:27.285Z,10.86
2023-05-08T07:45:55.713Z,11.00
2023-05-08T07:48:24.150Z,11.23
2023-05-08T07:50:52.439Z,11.12
2023-05-08T07:53:21.325Z,11.07
2023-05-08T07:55:50.287Z,10.92
2023-05-08T07:58:18.548Z,10.76
2023-05-08T08:00:48.489Z,10.89
2023-05-08T08:03:18.454Z,10.97
2023-05-08T08:05:46.876Z,11.12
2023-05-08T08:08:15.062Z,11.28
2023-05-08T08:10:43.307Z,11.27
2023-05-08T08:13:11.554Z,11.29
2023-05-08T08:15:39.910Z,11.22
2023-05-08T08:18:09.784Z,11.24
2023-05-08T08:20:38.909Z,11.16
2023-05-08T08:23:07.643Z,11.11
2023-05-08T08:25:35.867Z,11.16
2023-05-08T08:28:04.009Z,11.27
2023-05-08T08:30:32.490Z,11.33
2023-05-08T08:33:02.524Z,11.30
2023-05-08T08:35:33.745Z,11.58
2023-05-08T08:38:02.465Z,11.96
2023-05-08T08:40:32.794Z,11.93
2023-05-08T08:43:01.232Z,11.72
2023-05-08T08:45:31.963Z,11.57
2023-05-08T08:48:06.492Z,11.88
2023-05-08T08:50:40.358Z,11.95
2023-05-08T08:53:17.452Z,11.93
2023-05-08T08:55:52.761Z,11.90
2023-05-08T08:58:27.907Z,11.94
2023-05-08T09:00:57.229Z,12.12
2023-05-08T09:03:32.499Z,11.94
2023-05-08T09:06:02.951Z,12.13
2023-05-08T09:08:37.106Z,11.95
2023-05-08T09:11:06.445Z,11.87
2023-05-08T09:13:40.032Z,11.79
2023-05-08T09:16:12.950Z,11.68
2023-05-08T09:18:42.215Z,11.90
2023-05-08T09:21:17.001Z,11.82
2023-05-08T09:23:56.928Z,11.96
2023-05-08T09:26:29.397Z,12.01
2023-05-08T09:29:10.609Z,12.15
2023-05-08T09:31:40.929Z,12.14
2023-05-08T09:34:12.415Z,12.34
2023-05-08T09:36:42.261Z,12.35
2023-05-08T09:39:14.124Z,12.14
2023-05-08T09:41:59.262Z,12.17
2023-05-08T09:44:28.993Z,12.25
2023-05-08T09:47:12.206Z,12.37
2023-05-08T09:49:45.942Z,12.11
2023-05-08T09:52:17.494Z,11.77
2023-05-08T09:54:49.408Z,11.75
2023-05-08T09:57:22.284Z,11.79
2023-05-08T10:00:06.133Z,12.11
2023-05-08T10:02:36.172Z,11.89
2023-05-08T10:05:05.986Z,11.95
2023-05-08T10:07:38.611Z,11.99
2023-05-08T10:10:11.178Z,12.08
2023-05-08T10:12:40.408Z,11.88
2023-05-08T10:15:10.103Z,11.81
2023-05-08T10:17:48.969Z,11.75
2023-05-08T10:20:22.472Z,11.68
2023-05-08T10:22:57.486Z,11.50
2023-05-08T10:25:29.467Z,11.58
2023-05-08T10:28:09.576Z,11.68
2023-05-08T10:30:39.983Z,11.75
2023-05-08T10:33:17.785Z,11.79
2023-05-08T10:35:48.133Z,11.72
2023-05-08T10:38:18.587Z,11.71
2023-05-08T10:40:50.704Z,11.66
2023-05-08T10:43:19.944Z,11.66
2023-05-08T10:45:52.996Z,11.73
2023-05-08T10:48:31.435Z,11.57
2023-05-08T10:51:08.082Z,11.43
2023-05-08T10:53:45.408Z,11.71
2023-05-08T10:56:13.760Z,11.72
2023-05-08T10:58:42.216Z,11.88
2023-05-08T11:01:15.404Z,11.73
2023-05-08T11:03:50.681Z,11.93
2023-05-08T11:06:39.842Z,11.84
2023-05-08T11:09:09.662Z,11.93
2023-05-08T11:11:40.249Z,11.91
2023-05-08T11:14:14.865Z,11.75
2023-05-08T11:17:07.129Z,11.74
2023-05-08T11:19:35.842Z,11.61
2023-05-08T11:22:21.793Z,11.86
2023-05-08T11:24:55.772Z,11.80
2023-05-08T11:28:20.471Z,12.11
2023-05-08T11:30:48.570Z,12.31
2023-05-08T11:33:18.323Z,12.36
2023-05-08T11:35:56.137Z,12.23
2023-05-08T11:38:32.857Z,12.33
2023-05-08T11:41:04.899Z,12.01
2023-05-08T11:43:59.701Z,12.11
2023-05-08T11:46:39.388Z,12.10
2023-05-08T11:49:11.615Z,12.09
2023-05-08T11:51:44.878Z,12.23
2023-05-08T11:54:18.207Z,12.40
2023-05-08T11:56:52.020Z,12.54
2023-05-08T11:59:20.678Z,12.65
2023-05-08T12:02:06.893Z,12.65
2023-05-08T12:04:45.558Z,12.84
2023-05-08T12:07:14.260Z,13.06
2023-05-08T12:09:42.509Z,13.09
2023-05-08T12:12:12.088Z,13.59
2023-05-08T12:14:40.164Z,13.67
2023-05-08T12:17:08.405Z,14.25
2023-05-08T12:19:36.697Z,14.59
2023-05-08T12:22:04.953Z,14.60
2023-05-08T12:24:33.146Z,14.34
2023-05-08T12:27:01.882Z,13.83
2023-05-08T12:29:31.719Z,14.09
2023-05-08T12:32:00.038Z,14.11
2023-05-08T12:34:28.982Z,14.19
2023-05-08T12:37:06.670Z,14.11
2023-05-08T12:39:37.874Z,14.28
2023-05-08T12:42:06.336Z,15.17
2023-05-08T12:44:36.986Z,15.38
2023-05-08T12:47:07.115Z,15.77
2023-05-08T12:49:35.533Z,16.46
2023-05-08T12:52:05.596Z,16.66
2023-05-08T12:54:35.472Z,16.77
2023-05-08T12:57:12.905Z,17.06
2023-05-08T12:59:43.702Z,17.41
2023-05-08T13:02:18.743Z,17.86
2023-05-08T13:04:47.653Z,18.79
2023-05-08T13:07:16.228Z,18.95
2023-05-08T13:09:58.482Z,18.19
2023-05-08T13:12:26.861Z,17.73
2023-05-08T13:14:56.477Z,17.69
2023-05-08T13:17:25.025Z,17.73
2023-05-08T13:19:53.590Z,17.36
2023-05-08T13:22:26.721Z,17.72
2023-05-08T13:24:57.659Z,17.22
2023-05-08T13:27:26.054Z,16.81
2023-05-08T13:29:55.580Z,16.95
2023-05-08T13:32:25.463Z,17.10
2023-05-08T13:34:56.427Z,17.63
2023-05-08T13:37:27.339Z,16.94
2023-05-08T13:39:55.540Z,17.13
2023-05-08T13:42:23.730Z,17.11
2023-05-08T13:44:52.792Z,16.72
2023-05-08T13:47:21.099Z,16.56
2023-05-08T13:49:50.922Z,16.56
2023-05-08T13:52:19.235Z,16.05
2023-05-08T13:54:47.493Z,16.07
2023-05-08T13:57:15.709Z,16.07
2023-05-08T13:59:44.361Z,16.00
2023-05-08T14:02:12.706Z,15.62
2023-05-08T14:04:41.281Z,15.39
2023-05-08T14:07:11.195Z,15.32
2023-05-08T14:09:41.847Z,15.08
2023-05-08T14:12:10.124Z,15.30
2023-05-08T14:14:39.233Z,15.42
2023-05-08T14:17:08.103Z,15.19
2023-05-08T14:19:36.625Z,15.29
2023-05-08T14:22:04.873Z,15.14
2023-05-08T14:24:34.651Z,15.12
2023-05-08T14:27:06.424Z,15.15
2023-05-08T14:29:35.879Z,14.92
2023-05-08T14:32:04.266Z,15.08
2023-05-08T14:34:32.501Z,14.84
2023-05-08T14:37:00.980Z,14.59
2023-05-08T14:39:29.645Z,14.73
2023-05-08T14:42:14.224Z,14.46
2023-05-08T14:44:48.245Z,14.84
2023-05-08T14:47:16.476Z,14.87
2023-05-08T14:49:44.707Z,14.80
2023-05-08T14:52:12.907Z,14.73
2023-05-08T14:54:42.231Z,14.74
2023-05-08T14:57:14.372Z,14.45
2023-05-08T14:59:49.348Z,14.30
2023-05-08T15:02:23.165Z,14.16
2023-05-08T15:04:51.749Z,14.17
2023-05-08T15:07:20.065Z,14.14
2023-05-08T15:09:48.918Z,14.02
2023-05-08T15:12:18.726Z,14.03
2023-05-08T15:14:47.259Z,14.12
2023-05-08T15:17:15.758Z,14.20
2023-05-08T15:19:45.889Z,14.22
2023-05-08T15:22:14.547Z,14.19
2023-05-08T15:24:42.978Z,14.32
2023-05-08T15:27:11.906Z,14.37
2023-05-08T15:29:41.714Z,14.30
2023-05-08T15:32:10.543Z,14.50
2023-05-08T15:34:40.757Z,14.34
2023-05-08T15:37:09.294Z,14.33
2023-05-08T15:39:37.512Z,14.36
2023-05-08T15:42:06.847Z,14.36
2023-05-08T15:44:53.316Z,14.44
2023-05-08T15:47:24.159Z,14.43
2023-05-08T15:49:52.435Z,14.35
2023-05-08T15:52:20.835Z,14.46
2023-05-08T15:54:49.470Z,14.50
2023-05-08T15:57:18.248Z,14.32
2023-05-08T15:59:46.660Z,14.35
2023-05-08T16:02:14.829Z,14.27
2023-05-08T16:04:45.107Z,14.38
2023-05-08T16:07:13.645Z,14.24
2023-05-08T16:09:42.205Z,14.31
2023-05-08T16:12:11.130Z,14.35
2023-05-08T16:14:39.414Z,14.23
2023-05-08T16:17:08.916Z,14.31
2023-05-08T16:19:38.963Z,14.35
2023-05-08T16:22:08.561Z,14.45
2023-05-08T16:24:36.712Z,14.34
2023-05-08T16:27:05.293Z,14.32
2023-05-08T16:29:33.486Z,14.37
2023-05-08T16:32:01.808Z,14.33
2023-05-08T16:34:29.910Z,14.27
2023-05-08T16:36:58.566Z,13.98
2023-05-08T16:39:28.271Z,14.09
2023-05-08T16:41:56.656Z,13.92
2023-05-08T16:44:25.030Z,13.87
2023-05-08T16:46:53.370Z,13.89
2023-05-08T16:49:25.260Z,13.93
2023-05-08T16:51:53.546Z,13.98
2023-05-08T16:54:21.694Z,13.88
2023-05-08T16:56:51.557Z,13.92
2023-05-08T16:59:20.237Z,13.87
2023-05-08T17:01:48.566Z,13.82
2023-05-08T17:04:16.863Z,13.71
2023-05-08T17:06:45.110Z,13.68
2023-05-08T17:09:13.294Z,13.76
2023-05-08T17:11:41.698Z,13.97
2023-05-08T17:14:11.494Z,13.81
2023-05-08T17:16:40.742Z,13.74
2023-05-08T17:19:09.638Z,13.87
2023-05-08T17:21:37.939Z,13.81
2023-05-08T17:24:06.832Z,13.74
2023-05-08T17:26:35.158Z,13.75
2023-05-08T17:29:03.581Z,13.73
2023-05-08T17:31:34.429Z,13.80
2023-05-08T17:34:02.708Z,13.87
2023-05-08T17:36:31.124Z,13.93
2023-05-08T17:38:59.484Z,14.03
2023-05-08T17:41:27.739Z,13.87
2023-05-08T17:43:56.253Z,13.69
2023-05-08T17:46:24.651Z,13.78
2023-05-08T17:48:54.704Z,13.64
2023-05-08T17:51:23.023Z,13.69
2023-05-08T17:53:53.293Z,13.90
2023-05-08T17:56:23.349Z,13.70
2023-05-08T17:58:53.317Z,13.58
2023-05-08T18:01:21.838Z,13.46
2023-05-08T18:03:50.216Z,13.38
2023-05-08T18:06:20.655Z,13.31
2023-05-08T18:08:49.656Z,13.28
2023-05-08T18:11:19.328Z,13.28
2023-05-08T18:13:47.822Z,13.64
2023-05-08T18:16:22.294Z,13.79
2023-05-08T18:18:51.053Z,13.53
2023-05-08T18:21:22.462Z,13.68
2023-05-08T18:23:50.895Z,13.63
2023-05-08T18:26:19.655Z,13.43
2023-05-08T18:28:48.192Z,13.34
2023-05-08T18:31:16.966Z,13.39
2023-05-08T18:33:45.888Z,13.26
2023-05-08T18:36:18.212Z,13.06
2023-05-08T18:38:48.925Z,13.11
2023-05-08T18:41:17.492Z,12.95
2023-05-08T18:43:47.699Z,12.79
2023-05-08T18:46:18.284Z,12.96
2023-05-08T18:48:49.055Z,13.24
2023-05-08T18:51:17.280Z,13.17
2023-05-08T18:53:51.823Z,12.99
2023-05-08T18:56:21.319Z,12.91
2023-05-08T18:58:49.924Z,12.80
2023-05-08T19:01:20.341Z,12.68
2023-05-08T19:03:50.094Z,12.83
2023-05-08T19:06:19.147Z,12.95
2023-05-08T19:08:48.863Z,12.92
2023-05-08T19:11:17.108Z,12.85
2023-05-08T19:13:45.335Z,12.71
2023-05-08T19:16:13.884Z,12.60
2023-05-08T19:18:43.181Z,12.61
2023-05-08T19:21:11.712Z,12.59
2023-05-08T19:23:40.074Z,12.53
2023-05-08T19:26:09.808Z,12.39
2023-05-08T19:28:38.296Z,12.47
2023-05-08T19:31:07.369Z,12.47
2023-05-08T19:33:38.034Z,12.43
2023-05-08T19:36:06.814Z,12.38
2023-05-08T19:38:37.504Z,12.32
2023-05-08T19:41:05.820Z,12.34
2023-05-08T19:43:35.493Z,12.40
2023-05-08T19:46:03.644Z,12.33
2023-05-08T19:48:32.039Z,12.28
2023-05-08T19:51:06.807Z,12.25
2023-05-08T19:53:34.976Z,12.28
2023-05-08T19:56:03.251Z,12.24
2023-05-08T19:58:31.755Z,12.23
2023-05-08T20:01:01.800Z,12.20
2023-05-08T20:03:30.214Z,12.15
2023-05-08T20:05:58.507Z,12.17
2023-05-08T20:08:29.503Z,12.17
2023-05-08T20:11:02.408Z,12.13
2023-05-08T20:13:30.906Z,12.14
2023-05-08T20:15:59.591Z,12.13
2023-05-08T20:18:29.204Z,12.04
2023-05-08T20:20:57.534Z,11.95
2023-05-08T20:23:25.817Z,11.97
2023-05-08T20:25:54.243Z,11.99
2023-05-08T20:28:26.125Z,11.94
2023-05-08T20:30:54.657Z,11.86
2023-05-08T20:33:22.938Z,11.83
2023-05-08T20:35:54.366Z,11.73
2023-05-08T20:38:22.805Z,11.72
2023-05-08T20:40:51.157Z,11.70
2023-05-08T20:43:19.571Z,11.67
2023-05-08T20:45:49.273Z,11.67
2023-05-08T20:48:17.529Z,11.62
2023-05-08T20:50:45.760Z,11.62
2023-05-08T20:53:15.305Z,11.56
2023-05-08T20:55:43.462Z,11.56
2023-05-08T20:58:11.738Z,11.53
2023-05-08T21:00:40.162Z,11.50
2023-05-08T21:03:08.321Z,11.49
2023-05-08T21:05:36.559Z,11.52
2023-05-08T21:08:06.332Z,11.41
2023-05-08T21:10:36.081Z,11.44
2023-05-08T21:13:05.543Z,11.44
2023-05-08T21:15:35.120Z,11.39
2023-05-08T21:18:03.277Z,11.36
2023-05-08T21:20:33.928Z,11.28
2023-05-08T21:23:02.500Z,11.25
2023-05-08T21:25:30.898Z,11.23
2023-05-08T21:28:00.404Z,11.14
2023-05-08T21:30:28.551Z,11.11
2023-05-08T21:32:56.967Z,11.07
2023-05-08T21:35:25.122Z,11.02
2023-05-08T21:37:54.659Z,10.96
2023-05-08T21:40:23.123Z,10.94
2023-05-08T21:42:51.220Z,10.88
2023-05-08T21:45:20.883Z,10.77
2023-05-08T21:48:09.123Z,10.73
2023-05-08T21:50:45.612Z,10.69
2023-05-08T21:53:13.821Z,10.61
2023-05-08T21:55:42.056Z,10.52
2023-05-08T21:58:10.200Z,10.54
2023-05-08T22:00:39.924Z,10.48
2023-05-08T22:03:08.232Z,10.43
2023-05-08T22:05:36.410Z,10.40
2023-05-08T22:08:04.653Z,10.36
2023-05-08T22:10:32.932Z,10.27
2023-05-08T22:13:01.859Z,10.27
2023-05-08T22:15:30.939Z,10.21
2023-05-08T22:18:02.666Z,10.21
2023-05-08T22:20:31.129Z,10.18
2023-05-08T22:22:59.201Z,10.15
2023-05-08T22:25:27.436Z,10.08
2023-05-08T22:27:55.628Z,10.08
2023-05-08T22:30:23.900Z,10.07
2023-05-08T22:32:56.306Z,10.04
2023-05-08T22:35:27.449Z,9.99
2023-05-08T22:37:57.354Z,9.83
2023-05-08T22:40:26.391Z,9.80
2023-05-08T22:42:55.980Z,9.83
2023-05-08T22:45:24.729Z,9.70
2023-05-08T22:47:53.007Z,9.68
2023-05-08T22:50:21.605Z,9.67
2023-05-08T22:52:51.168Z,9.65
2023-05-08T22:55:19.343Z,9.58
2023-05-08T22:57:47.529Z,9.54
2023-05-08T23:00:16.584Z,9.49
2023-05-08T23:02:44.973Z,9.49
2023-05-08T23:05:13.446Z,9.49
2023-05-08T23:07:41.956Z,9.50
2023-05-08T23:10:12.274Z,9.56
2023-05-08T23:12:40.369Z,9.51
2023-05-08T23:15:09.762Z,9.53
2023-05-08T23:17:37.956Z,9.57
2023-05-08T23:20:07.063Z,9.58
2023-05-08T23:22:35.135Z,9.59
2023-05-08T23:25:03.800Z,9.62
2023-05-08T23:27:33.198Z,9.57
2023-05-08T23:30:01.610Z,9.54
2023-05-08T23:32:29.768Z,9.62
2023-05-08T23:34:57.911Z,9.61
2023-05-08T23:37:26.166Z,9.62
2023-05-08T23:39:54.321Z,9.62
2023-05-08T23:42:22.537Z,9.54
2023-05-08T23:44:52.161Z,9.61
2023-05-08T23:47:21.133Z,9.61
2023-05-08T23:49:49.559Z,9.60
2023-05-08T23:52:18.874Z,9.58
2023-05-08T23:54:46.935Z,9.58
2023-05-08T23:57:15.217Z,9.58
2023-05-08T23:59:43.373Z,9.51
